• Join FlightAware (Why Join?)
  • Login
  • US Flag 
05:56AM EST


 

Airport Tracker/Info


-or-


 

Live Flight TrackerFlight Track Log ✈ FIN667 ✈ 02-Feb-2014 ✈ EFHK / HEL - EKCH / CPH

Flight Track Log - Related Links

Times and Time Zones

All times are in EST time to prevent confusion due to time zone crossing. See the FIN667 flight status page for this flight to view local times or setup timezone preferences in your user account.

Time Position Orientation Groundspeed Altitude Reporting Facility
EST Latitude Longitude Course Direction KTS MPH feet Rate Location/Type
11:14AM 60.1730 24.4723 240° Southwest  Level Estimated
11:15AM 60.1245 24.3096 239° Southwest  Level Estimated
11:16AM 60.0758 24.1473 239° Southwest  Level Estimated
11:17AM 60.0232 23.9733 239° Southwest  Level Estimated
11:18AM 59.9703 23.7998 239° Southwest  Level Estimated
11:19AM 59.9173 23.6269 239° Southwest  Level Estimated
11:20AM 59.8640 23.4545 238° Southwest  Level Estimated
11:21AM 59.8105 23.2827 238° Southwest  Level Estimated
11:22AM 59.7567 23.1114 238° Southwest  Level Estimated
11:23AM 59.7028 22.9407 238° Southwest  Level Estimated
11:24AM 59.6486 22.7706 238° Southwest  Level Estimated
11:25AM 59.5942 22.6010 238° Southwest  Level Estimated
11:26AM 59.5396 22.4319 238° Southwest  Level Estimated
11:27AM 59.4847 22.2634 237° Southwest  Level Estimated
11:28AM 59.4297 22.0954 237° Southwest  Level Estimated
11:29AM 59.3744 21.9280 237° Southwest  Level Estimated
11:30AM 59.3190 21.7611 237° Southwest  Level Estimated
11:31AM 59.2633 21.5948 237° Southwest  Level Estimated
11:32AM 59.2074 21.4290 237° Southwest  Level Estimated
11:33AM 59.1512 21.2638 237° Southwest  Level Estimated
11:34AM 59.0949 21.0991 236° Southwest  Level Estimated
11:35AM 59.0384 20.9349 236° Southwest  Level Estimated
11:36AM 58.9817 20.7713 236° Southwest  Level Estimated
11:37AM 58.9247 20.6082 236° Southwest  Level Estimated
11:38AM 58.8676 20.4457 236° Southwest  Level Estimated
11:39AM 58.8102 20.2836 236° Southwest  Level Estimated
11:40AM 58.7527 20.1222 236° Southwest  Level Estimated
11:41AM 58.6949 19.9612 235° Southwest  Level Estimated
11:42AM 58.6370 19.8008 235° Southwest  Level Estimated
11:43AM 58.5788 19.6410 235° Southwest  Level Estimated
11:44AM 58.5205 19.4816 235° Southwest  Level Estimated
11:45AM 58.4619 19.3228 235° Southwest  Level Estimated
11:46AM 58.4032 19.1645 235° Southwest  Level Estimated
11:47AM 58.3442 19.0068 235° Southwest  Level Estimated
11:48AM 58.2851 18.8496 234° Southwest  Level Estimated
11:49AM 58.2258 18.6929 234° Southwest  Level Estimated
11:50AM 58.1663 18.5367 234° Southwest  Level Estimated
11:51AM 58.1066 18.3810 234° Southwest  Level Estimated
11:52AM 58.0467 18.2259 234° Southwest  Level Estimated
11:53AM 57.9866 18.0713 234° Southwest  Level Estimated
11:54AM 57.9263 17.9172 234° Southwest  Level Estimated
11:55AM 57.8659 17.7636 234° Southwest  Level Estimated
11:56AM 57.8052 17.6105 233° Southwest  Level Estimated
11:57AM 57.7444 17.4580 233° Southwest  Level Estimated
11:58AM 57.6834 17.3060 233° Southwest  Level Estimated
11:59AM 57.6222 17.1544 233° Southwest  Level Estimated
12:00PM 57.5609 17.0034 233° Southwest  Level Estimated
12:01PM 57.4993 16.8529 233° Southwest  Level Estimated
12:02PM 57.4376 16.7029 233° Southwest  Level Estimated
12:03PM 57.3757 16.5534 233° Southwest  Level Estimated
12:04PM 57.3136 16.4045 232° Southwest  Level Estimated
12:05PM 57.2514 16.2560 232° Southwest  Level Estimated
12:06PM 57.1889 16.1080 232° Southwest  Level Estimated
12:07PM 57.1263 15.9605 232° Southwest  Level Estimated
12:08PM 57.0635 15.8135 232° Southwest  Level Estimated
12:09PM 57.0006 15.6671 232° Southwest  Level Estimated
12:10PM 56.9375 15.5211 232° Southwest  Level Estimated
12:11PM 56.8742 15.3756 232° Southwest  Level Estimated
12:12PM 56.8107 15.2306 231° Southwest  Level Estimated
12:13PM 56.7471 15.0861 231° Southwest  Level Estimated
12:14PM 56.6833 14.9420 231° Southwest  Level Estimated
12:15PM 56.6194 14.7985 231° Southwest  Level Estimated
12:16PM 56.5552 14.6554 231° Southwest  Level Estimated
12:17PM 56.4910 14.5129 231° Southwest  Level Estimated
12:18PM 56.4265 14.3708 231° Southwest  Level Estimated
12:19PM 56.3619 14.2292 231° Southwest  Level Estimated
12:20PM 56.2971 14.0881 230° Southwest  Level Estimated
12:21PM 56.2322 13.9474 230° Southwest  Level Estimated
12:22PM 56.1671 13.8073 230° Southwest  Level Estimated
12:23PM 56.1019 13.6676 230° Southwest  Level Estimated
12:24PM 56.0365 13.5283 230° Southwest  Level Estimated
12:25PM 55.9709 13.3896 230° Southwest  Level Estimated
12:26PM 55.9052 13.2513 230° Southwest  Level Estimated
12:27PM 55.8393 13.1135 230° Southwest  Level Estimated
12:28PM 55.7733 12.9762 230° Southwest  Level Estimated
12:29PM 55.7071 12.8393 229° Southwest  Level Estimated
12:30PM 55.6373 12.6956 229° Southwest  Level Estimated
12:31PM 55.6179 12.6560 229° Southwest  Level Estimated
12:32PM 55.6179 12.6560 159° South  Level Estimated
12:33PM 55.6179 12.6560 159° South  Level Estimated
12:34PM 55.6179 12.6560 159° South  Level Estimated
12:35PM 55.6179 12.6560 159° South  Level Estimated
12:36PM 55.6179 12.6560 159° South  Level Estimated
12:37PM 55.6179 12.6560 159° South  Level Estimated
12:38PM 55.6179 12.6560 159° South  Level Estimated
12:39PM 55.6179 12.6560 159° South  Level Estimated
12:40PM 55.6179 12.6560 159° South  Level Estimated
12:41PM 55.6179 12.6560 159° South  Level Estimated
12:42PM 55.6179 12.6560 159° South  Level Estimated